Time;durP1;ratioP1;P1;durP2;ratioP2;P2;SDS_P1;SDS_P2;PMS_P1;PMS_P2;Temp;Humidity;BMP_temperature;BMP_pressure;BME280_temperature;BME280_humidity;BME280_pressure;Samples;Min_cycle;Max_cycle;Signal;HPM_P1;HPM_P2
2022/11/05 00:09:31;;;;;;;4.33;2.10;;;;;;;-145.14;100.00;70583.66;5040585;28;20425;-76
2022/11/05 00:17:28;;;;;;;4.40;1.60;;;;;;;-145.14;100.00;70583.66;5019065;28;20458;-76
2022/11/05 00:19:53;;;;;;;6.03;1.87;;;;;;;-145.14;100.00;70583.66;5011116;28;21205;-76
2022/11/05 00:25:15;;;;;;;3.50;1.80;;;;;;;-145.14;100.00;70583.66;5016218;28;20203;-77
2022/11/05 00:27:43;;;;;;;4.90;1.83;;;;;;;-145.14;100.00;70583.66;5022208;28;20423;-76
2022/11/05 00:30:09;;;;;;;3.00;1.50;;;;;;;-145.14;100.00;70583.66;5021688;28;20439;-77
2022/11/05 00:32:34;;;;;;;4.33;1.87;;;;;;;-145.14;100.00;70583.66;5022342;28;20458;-76
2022/11/05 00:35:00;;;;;;;4.00;1.73;;;;;;;-145.14;100.00;70583.66;5025339;28;20444;-77
2022/11/05 00:37:28;;;;;;;2.87;1.73;;;;;;;-145.14;100.00;70583.66;5020172;28;20260;-77
2022/11/05 00:39:54;;;;;;;5.33;1.90;;;;;;;-145.14;100.00;70583.66;5021271;28;20180;-77
2022/11/05 00:45:05;;;;;;;5.53;1.77;;;;;;;-145.14;100.00;70583.66;5015757;28;20187;-77
2022/11/05 00:50:17;;;;;;;15.50;3.90;;;;;;;-145.14;100.00;70583.66;5024803;28;20515;-77
2022/11/05 00:52:54;;;;;;;3.50;1.70;;;;;;;-145.14;100.00;70583.66;5009376;28;20513;-76
2022/11/05 00:55:40;;;;;;;4.53;1.80;;;;;;;-145.14;100.00;70583.66;5028428;28;20965;-77
2022/11/05 00:58:14;;;;;;;4.83;1.67;;;;;;;-145.14;100.00;70583.66;5024356;28;20849;-77
2022/11/05 01:00:43;;;;;;;6.47;1.77;;;;;;;-145.14;100.00;70583.66;5019454;28;20475;-77
2022/11/05 01:03:10;;;;;;;4.63;2.10;;;;;;;-145.14;100.00;70583.66;5020954;28;20482;-76
2022/11/05 01:05:45;;;;;;;3.73;1.67;;;;;;;-145.14;100.00;70583.66;5020859;28;20451;-76
2022/11/05 01:08:12;;;;;;;7.33;1.90;;;;;;;-145.14;100.00;70583.66;5019748;28;20452;-76
2022/11/05 01:10:46;;;;;;;5.20;1.90;;;;;;;-145.14;100.00;70583.66;5021826;28;20478;-76
2022/11/05 01:13:12;;;;;;;7.53;2.30;;;;;;;-145.14;100.00;70583.66;5024481;28;20466;-75
2022/11/05 01:15:39;;;;;;;8.13;2.27;;;;;;;-145.14;100.00;70583.66;5004225;28;20831;-76
2022/11/05 01:18:04;;;;;;;4.83;2.00;;;;;;;-145.14;100.00;70583.66;5005251;28;20439;-76
2022/11/05 01:20:30;;;;;;;6.90;1.93;;;;;;;-145.14;100.00;70583.66;5025930;28;20783;-76
2022/11/05 01:22:56;;;;;;;4.27;1.77;;;;;;;-145.14;100.00;70583.66;5028752;28;20212;-77
2022/11/05 01:25:22;;;;;;;6.87;2.10;;;;;;;-145.14;100.00;70583.66;5025013;28;20286;-77
2022/11/05 01:27:47;;;;;;;4.57;2.10;;;;;;;-145.14;100.00;70583.66;5029014;28;20927;-77
2022/11/05 01:30:13;;;;;;;4.90;2.10;;;;;;;-145.14;100.00;70583.66;5029380;28;20191;-76
2022/11/05 01:32:38;;;;;;;5.83;1.90;;;;;;;-145.14;100.00;70583.66;5023762;28;20197;-76
2022/11/05 01:35:07;;;;;;;6.23;2.17;;;;;;;-145.14;100.00;70583.66;5022176;28;20184;-77
2022/11/05 01:37:33;;;;;;;3.73;1.67;;;;;;;-145.14;100.00;70583.66;5026517;28;20669;-76
2022/11/05 01:39:59;;;;;;;4.63;1.73;;;;;;;-145.14;100.00;70583.66;5031506;28;20462;-76
2022/11/05 01:42:26;;;;;;;5.60;1.90;;;;;;;-145.14;100.00;70583.66;5031868;28;20479;-77
2022/11/05 01:45:20;;;;;;;5.47;1.93;;;;;;;-145.14;100.00;70583.66;5030612;28;20719;-77
2022/11/05 01:48:02;;;;;;;7.63;2.07;;;;;;;-145.14;100.00;70583.66;5026308;28;20438;-76
2022/11/05 01:50:46;;;;;;;3.90;1.80;;;;;;;-145.14;100.00;70583.66;5022394;28;20522;-76
2022/11/05 01:53:37;;;;;;;6.90;2.17;;;;;;;-145.14;100.00;70583.66;5022679;28;21999;-76
2022/11/05 01:56:08;;;;;;;5.47;1.53;;;;;;;-145.14;100.00;70583.66;5025580;28;20541;-76
2022/11/05 01:58:47;;;;;;;5.93;1.97;;;;;;;-145.14;100.00;70583.66;5024618;28;20439;-77
2022/11/05 02:01:13;;;;;;;6.37;2.27;;;;;;;-145.14;100.00;70583.66;5029736;28;20429;-77
2022/11/05 02:03:39;;;;;;;7.30;2.10;;;;;;;-145.14;100.00;70583.66;5028702;28;20455;-77
2022/11/05 02:06:08;;;;;;;8.70;2.50;;;;;;;-145.14;100.00;70583.66;5028555;28;20494;-77
2022/11/05 02:08:40;;;;;;;4.00;2.00;;;;;;;-145.14;100.00;70583.66;5029188;28;20518;-76
2022/11/05 02:11:06;;;;;;;10.13;2.37;;;;;;;-145.14;100.00;70583.66;5027718;28;20461;-77
2022/11/05 02:13:31;;;;;;;7.80;2.40;;;;;;;-145.14;100.00;70583.66;5021291;28;20966;-76
2022/11/05 02:16:24;;;;;;;4.20;2.00;;;;;;;-145.14;100.00;70583.66;5014766;28;20596;-77
2022/11/05 02:19:00;;;;;;;7.63;2.27;;;;;;;-145.14;100.00;70583.66;5020164;28;20180;-78
2022/11/05 02:21:56;;;;;;;4.40;2.03;;;;;;;-145.14;100.00;70583.66;5014330;28;20431;-77
2022/11/05 02:25:03;;;;;;;10.50;1.93;;;;;;;-145.14;100.00;70583.66;5017699;28;20550;-76
2022/11/05 02:27:53;;;;;;;4.63;2.13;;;;;;;-145.14;100.00;70583.66;5005580;28;20593;-76
2022/11/05 02:30:43;;;;;;;5.90;2.30;;;;;;;-145.14;100.00;70583.66;5017027;28;20442;-77
2022/11/05 02:33:33;;;;;;;4.13;1.80;;;;;;;-145.14;100.00;70583.66;5018566;28;20467;-76
2022/11/05 02:36:04;;;;;;;3.60;1.80;;;;;;;-145.14;100.00;70583.66;5018981;28;20440;-76
2022/11/05 02:38:50;;;;;;;3.83;1.73;;;;;;;-145.14;100.00;70583.66;5042697;28;21099;-78
2022/11/05 02:41:37;;;;;;;4.07;1.77;;;;;;;-145.14;100.00;70583.66;5022801;28;20442;-77
2022/11/05 02:44:24;;;;;;;11.63;2.00;;;;;;;-145.14;100.00;70583.66;5037287;28;20540;-76
2022/11/05 02:47:14;;;;;;;5.70;2.00;;;;;;;-145.14;100.00;70583.66;5028787;28;20457;-77
2022/11/05 02:49:53;;;;;;;11.23;2.63;;;;;;;-145.14;100.00;70583.66;5038978;28;20436;-77
2022/11/05 02:53:00;;;;;;;3.87;1.50;;;;;;;-145.14;100.00;70583.66;5036248;28;20463;-77
2022/11/05 02:55:37;;;;;;;5.87;1.70;;;;;;;-145.14;100.00;70583.66;5039620;28;20473;-77
2022/11/05 02:58:04;;;;;;;5.67;2.00;;;;;;;-145.14;100.00;70583.66;5038092;28;20445;-77
2022/11/05 03:00:41;;;;;;;6.53;2.03;;;;;;;-145.14;100.00;70583.66;5040336;28;20449;-77
2022/11/05 03:03:34;;;;;;;3.80;1.70;;;;;;;-145.14;100.00;70583.66;5043238;28;20468;-77
2022/11/05 03:06:33;;;;;;;5.37;1.80;;;;;;;-145.14;100.00;70583.66;5039885;28;20446;-77
2022/11/05 03:09:01;;;;;;;6.70;1.87;;;;;;;-145.14;100.00;70583.66;5040164;28;20476;-77
2022/11/05 03:11:29;;;;;;;9.37;1.77;;;;;;;-145.14;100.00;70583.66;5037294;28;20484;-77
2022/11/05 03:14:18;;;;;;;5.23;1.97;;;;;;;-145.14;100.00;70583.66;5040381;28;21215;-77
2022/11/05 03:17:08;;;;;;;4.63;1.63;;;;;;;-145.14;100.00;70583.66;5021799;28;20442;-77
2022/11/05 03:20:03;;;;;;;6.57;2.53;;;;;;;-145.14;100.00;70583.66;5038049;28;20473;-77
2022/11/05 03:22:36;;;;;;;4.47;2.03;;;;;;;-145.14;100.00;70583.66;5014621;28;20462;-77
2022/11/05 03:25:10;;;;;;;6.53;1.97;;;;;;;-145.14;100.00;70583.66;5042564;28;20450;-76
2022/11/05 03:27:40;;;;;;;7.90;1.90;;;;;;;-145.14;100.00;70583.66;5047481;28;20438;-77
2022/11/05 03:30:09;;;;;;;4.63;2.10;;;;;;;-145.14;100.00;70583.66;5041133;28;20922;-77
2022/11/05 03:32:43;;;;;;;4.30;2.10;;;;;;;-145.14;100.00;70583.66;5043096;28;20461;-77
2022/11/05 03:35:17;;;;;;;5.93;1.83;;;;;;;-145.14;100.00;70583.66;5041283;28;20446;-77
2022/11/05 03:37:46;;;;;;;3.03;1.67;;;;;;;-145.14;100.00;70583.66;5044285;28;20433;-77
2022/11/05 03:40:15;;;;;;;4.90;1.57;;;;;;;-145.14;100.00;70583.66;5034759;28;20438;-76
2022/11/05 03:42:47;;;;;;;8.30;1.67;;;;;;;-145.14;100.00;70583.66;5038983;28;20469;-76
2022/11/05 03:45:28;;;;;;;5.67;1.30;;;;;;;-145.14;100.00;70583.66;5035768;28;20448;-77
2022/11/05 03:47:58;;;;;;;6.53;1.63;;;;;;;-145.14;100.00;70583.66;5031668;28;20437;-77
2022/11/05 03:50:31;;;;;;;3.73;1.50;;;;;;;-145.14;100.00;70583.66;5016430;28;20442;-77
2022/11/05 03:53:03;;;;;;;6.00;1.60;;;;;;;-145.14;100.00;70583.66;5029504;28;20478;-77
2022/11/05 03:55:40;;;;;;;4.50;1.60;;;;;;;-145.14;100.00;70583.66;5027814;28;20430;-76
2022/11/05 03:58:07;;;;;;;7.67;1.20;;;;;;;-145.14;100.00;70583.66;5036282;28;20488;-77
2022/11/05 04:00:32;;;;;;;4.40;1.37;;;;;;;-145.14;100.00;70583.66;5031946;28;20587;-76
2022/11/05 04:02:58;;;;;;;6.23;1.40;;;;;;;-145.14;100.00;70583.66;5036921;28;20900;-76
2022/11/05 04:05:23;;;;;;;4.17;1.23;;;;;;;-145.14;100.00;70583.66;5033140;28;20749;-76
2022/11/05 04:13:23;;;;;;;5.90;1.50;;;;;;;-145.14;100.00;70583.66;5036244;28;20909;-76
2022/11/05 04:18:33;;;;;;;3.03;1.33;;;;;;;-145.14;100.00;70583.66;5032171;28;20433;-77
2022/11/05 04:26:26;;;;;;;5.60;1.20;;;;;;;-145.14;100.00;70583.66;5041146;28;20860;-76
2022/11/05 04:31:37;;;;;;;6.87;1.53;;;;;;;-145.14;100.00;70583.66;5032861;28;20671;-77
2022/11/05 04:34:03;;;;;;;4.50;1.60;;;;;;;-145.14;100.00;70583.66;5036519;28;21006;-76
2022/11/05 04:36:28;;;;;;;2.93;1.23;;;;;;;-145.14;100.00;70583.66;5033433;28;20492;-77
2022/11/05 04:38:54;;;;;;;5.43;1.50;;;;;;;-145.14;100.00;70583.66;5035216;28;20226;-76
2022/11/05 04:41:19;;;;;;;5.27;2.00;;;;;;;-145.14;100.00;70583.66;5031756;28;20442;-77
2022/11/05 04:43:45;;;;;;;5.17;1.60;;;;;;;-145.14;100.00;70583.66;5028872;28;20582;-76
2022/11/05 04:46:10;;;;;;;3.83;1.03;;;;;;;-145.14;100.00;70583.66;5031233;28;20559;-77
2022/11/05 04:48:36;;;;;;;5.87;1.27;;;;;;;-145.14;100.00;70583.66;5005738;28;20219;-77
2022/11/05 04:51:03;;;;;;;4.73;1.50;;;;;;;-145.14;100.00;70583.66;5029202;28;20191;-77
2022/11/05 04:53:28;;;;;;;4.47;1.70;;;;;;;-145.14;100.00;70583.66;5033873;28;20458;-77
2022/11/05 04:55:53;;;;;;;4.23;1.80;;;;;;;-145.14;100.00;70583.66;5032970;28;20473;-76
2022/11/05 04:58:19;;;;;;;5.17;1.43;;;;;;;-145.14;100.00;70583.66;5026798;28;20651;-77
2022/11/05 05:00:44;;;;;;;4.73;1.30;;;;;;;-145.14;100.00;70583.66;5034106;28;20814;-77
2022/11/05 05:03:10;;;;;;;2.10;1.00;;;;;;;-145.14;100.00;70583.66;5027140;28;20697;-76
2022/11/05 05:05:35;;;;;;;3.20;1.40;;;;;;;-145.14;100.00;70583.66;5035002;28;20192;-76
2022/11/05 05:08:02;;;;;;;2.93;1.30;;;;;;;-145.14;100.00;70583.66;5032114;28;20187;-77
2022/11/05 05:10:28;;;;;;;5.10;1.40;;;;;;;-145.14;100.00;70583.66;5027081;28;20188;-77
2022/11/05 05:12:53;;;;;;;3.23;1.40;;;;;;;-145.14;100.00;70583.66;5024620;28;20477;-77
2022/11/05 05:15:19;;;;;;;4.13;1.50;;;;;;;-145.14;100.00;70583.66;5027038;28;20200;-76
2022/11/05 05:17:50;;;;;;;7.40;1.93;;;;;;;-145.14;100.00;70583.66;5035023;28;20218;-77
2022/11/05 05:22:59;;;;;;;2.70;1.07;;;;;;;-145.14;100.00;70583.66;5036127;28;20984;-77
2022/11/05 05:25:25;;;;;;;4.00;1.73;;;;;;;-145.14;100.00;70583.66;5033320;28;20450;-76
2022/11/05 05:27:50;;;;;;;5.87;3.10;;;;;;;-145.14;100.00;70583.66;5031152;28;20370;-77
2022/11/05 05:30:16;;;;;;;8.23;4.87;;;;;;;-145.14;100.00;70583.66;5032681;28;20206;-77
2022/11/05 05:32:42;;;;;;;5.30;2.20;;;;;;;-145.14;100.00;70583.66;5030291;28;20497;-77
2022/11/05 05:35:08;;;;;;;4.60;1.63;;;;;;;-145.14;100.00;70583.66;5039386;28;20183;-77
2022/11/05 05:37:33;;;;;;;2.80;1.43;;;;;;;-145.14;100.00;70583.66;5036245;28;20562;-78
2022/11/05 05:39:58;;;;;;;3.23;1.50;;;;;;;-145.14;100.00;70583.66;5032835;28;20508;-77
2022/11/05 05:42:24;;;;;;;4.60;1.53;;;;;;;-145.14;100.00;70583.66;5030183;28;20204;-77
2022/11/05 05:44:49;;;;;;;6.40;1.67;;;;;;;-145.14;100.00;70583.66;5008755;28;20227;-77
2022/11/05 05:47:15;;;;;;;6.70;1.83;;;;;;;-145.14;100.00;70583.66;5031773;28;20191;-77
2022/11/05 05:49:40;;;;;;;7.63;1.93;;;;;;;-145.14;100.00;70583.66;5032227;28;20198;-77
2022/11/05 05:52:06;;;;;;;6.03;2.00;;;;;;;-145.14;100.00;70583.66;5030590;28;20475;-77
2022/11/05 05:54:32;;;;;;;6.03;1.80;;;;;;;-145.14;100.00;70583.66;5030501;28;20423;-77
2022/11/05 05:56:57;;;;;;;7.70;3.27;;;;;;;-145.14;100.00;70583.66;5030494;28;20450;-77
2022/11/05 05:59:23;;;;;;;8.33;2.30;;;;;;;-145.14;100.00;70583.66;5039609;28;20450;-77
2022/11/05 06:01:48;;;;;;;3.30;2.17;;;;;;;-145.14;100.00;70583.66;5040549;28;20198;-78
2022/11/05 06:04:14;;;;;;;8.23;3.47;;;;;;;-145.14;100.00;70583.66;5035992;28;20215;-77
2022/11/05 06:06:40;;;;;;;7.43;5.43;;;;;;;-145.14;100.00;70583.66;5044645;28;20249;-77
2022/11/05 06:09:05;;;;;;;8.30;3.10;;;;;;;-145.14;100.00;70583.66;5042559;28;20580;-76
2022/11/05 06:11:31;;;;;;;6.80;2.50;;;;;;;-145.14;100.00;70583.66;5052132;28;20184;-77
2022/11/05 06:13:57;;;;;;;5.83;2.23;;;;;;;-145.14;100.00;70583.66;5044572;28;20225;-78
2022/11/05 06:16:22;;;;;;;8.70;1.50;;;;;;;-145.14;100.00;70583.66;5046184;28;20575;-76
2022/11/05 06:18:48;;;;;;;5.37;2.20;;;;;;;-145.14;100.00;70583.66;5047043;28;20730;-77
2022/11/05 06:21:16;;;;;;;6.33;2.70;;;;;;;-145.14;100.00;70583.66;5047444;28;20207;-79
2022/11/05 06:23:43;;;;;;;4.63;2.50;;;;;;;-145.14;100.00;70583.66;5045537;28;20695;-77
2022/11/05 06:26:11;;;;;;;6.30;3.10;;;;;;;-145.14;100.00;70583.66;5044608;28;20523;-77
2022/11/05 06:28:37;;;;;;;9.17;5.23;;;;;;;-145.14;100.00;70583.66;5040042;28;20511;-78
2022/11/05 06:31:03;;;;;;;10.90;6.67;;;;;;;-145.14;100.00;70583.66;5032010;28;20445;-78
2022/11/05 06:33:28;;;;;;;14.13;5.07;;;;;;;-145.14;100.00;70583.66;5045193;28;20207;-78
2022/11/05 06:35:57;;;;;;;12.97;6.83;;;;;;;-145.14;100.00;70583.66;5045338;28;20449;-78
2022/11/05 06:38:23;;;;;;;4.80;2.30;;;;;;;-145.14;100.00;70583.66;5042532;28;20787;-78
2022/11/05 06:40:48;;;;;;;9.37;2.10;;;;;;;-145.14;100.00;70583.66;5044943;28;20521;-78
2022/11/05 06:43:57;;;;;;;6.37;2.00;;;;;;;-145.14;100.00;70583.66;5046464;28;20203;-78
2022/11/05 06:46:22;;;;;;;3.63;1.93;;;;;;;-145.14;100.00;70583.66;5025148;28;20199;-78
2022/11/05 06:48:48;;;;;;;3.10;2.03;;;;;;;-145.14;100.00;70583.66;5047669;28;20442;-79
2022/11/05 06:51:13;;;;;;;2.53;1.93;;;;;;;-145.14;100.00;70583.66;5032225;28;20260;-77
2022/11/05 06:53:38;;;;;;;3.80;2.20;;;;;;;-145.14;100.00;70583.66;5049885;28;20237;-78
2022/11/05 06:56:05;;;;;;;18.70;8.50;;;;;;;-145.14;100.00;70583.66;5043975;28;20326;-79
2022/11/05 06:59:07;;;;;;;;;;;;;;;;;;;;;
2022/11/05 07:01:34;;;;;;;19.43;9.00;;;;;;;-145.14;100.00;70583.66;5050376;28;20424;-77
2022/11/05 07:03:59;;;;;;;17.07;9.30;;;;;;;-145.14;100.00;70583.66;5046078;28;20477;-81
2022/11/05 07:06:26;;;;;;;12.23;7.17;;;;;;;-145.14;100.00;70583.66;5049749;28;20433;-76
2022/11/05 07:08:51;;;;;;;15.97;7.80;;;;;;;-145.14;100.00;70583.66;5047635;28;20188;-78
2022/11/05 07:11:16;;;;;;;8.50;4.40;;;;;;;-145.14;100.00;70583.66;5049437;28;20926;-77
2022/11/05 07:13:42;;;;;;;7.47;5.03;;;;;;;-145.14;100.00;70583.66;5045182;28;20211;-79
2022/11/05 07:16:07;;;;;;;7.93;4.90;;;;;;;-145.14;100.00;70583.66;5050705;28;20703;-79
2022/11/05 07:18:33;;;;;;;12.63;6.40;;;;;;;-145.14;100.00;70583.66;5051846;28;20192;-78
2022/11/05 07:20:59;;;;;;;5.63;4.27;;;;;;;-145.14;100.00;70583.66;5049803;28;20696;-77
2022/11/05 07:23:25;;;;;;;5.77;3.30;;;;;;;-145.14;100.00;70583.66;5029605;28;20196;-79
2022/11/05 07:25:50;;;;;;;7.30;3.10;;;;;;;-145.14;100.00;70583.66;5048439;28;20808;-78
2022/11/05 07:28:16;;;;;;;5.90;2.90;;;;;;;-145.14;100.00;70583.66;5050107;28;20649;-80
2022/11/05 07:30:42;;;;;;;6.50;2.77;;;;;;;-145.14;100.00;70583.66;5053314;28;20184;-79
2022/11/05 07:33:07;;;;;;;7.00;2.90;;;;;;;-145.14;100.00;70583.66;5047385;28;20219;-77
2022/11/05 07:35:33;;;;;;;8.07;3.50;;;;;;;-145.14;100.00;70583.66;5048404;28;20689;-79
2022/11/05 07:37:58;;;;;;;4.57;3.10;;;;;;;-145.14;100.00;70583.66;5042016;28;20690;-78
2022/11/05 07:40:26;;;;;;;9.50;3.07;;;;;;;-145.14;100.00;70583.66;5048845;28;20180;-78
2022/11/05 07:42:57;;;;;;;4.37;3.33;;;;;;;-145.14;100.00;70583.66;5047291;28;20212;-78
2022/11/05 07:45:24;;;;;;;4.60;2.47;;;;;;;-145.14;100.00;70583.66;5046940;28;20537;-78
2022/11/05 07:48:00;;;;;;;7.93;2.87;;;;;;;-145.14;100.00;70583.66;5047267;28;20529;-78
2022/11/05 07:50:39;;;;;;;4.50;2.77;;;;;;;-145.14;100.00;70583.66;5045172;28;20443;-77
2022/11/05 07:55:58;;;;;;;5.03;3.03;;;;;;;-145.14;100.00;70583.66;5034820;28;20788;-77
2022/11/05 07:58:32;;;;;;;6.60;2.60;;;;;;;-145.14;100.00;70583.66;5042934;28;20881;-76
2022/11/05 08:00:57;;;;;;;4.87;2.87;;;;;;;-145.14;100.00;70583.66;5043363;28;20469;-77
2022/11/05 08:03:23;;;;;;;6.83;3.27;;;;;;;-145.14;100.00;70583.66;5046426;28;20465;-77
2022/11/05 08:05:48;;;;;;;8.83;5.40;;;;;;;-145.14;100.00;70583.66;5052947;28;20266;-78
2022/11/05 08:08:16;;;;;;;7.87;4.73;;;;;;;-145.14;100.00;70583.66;5044965;28;20266;-77
2022/11/05 08:10:42;;;;;;;7.60;4.00;;;;;;;-145.14;100.00;70583.66;5038022;28;20191;-77
2022/11/05 08:13:18;;;;;;;6.13;3.40;;;;;;;-145.14;100.00;70583.66;5040762;28;20884;-76
2022/11/05 08:15:51;;;;;;;13.23;5.50;;;;;;;-145.14;100.00;70583.66;5045009;28;20310;-78
2022/11/05 08:18:29;;;;;;;6.60;3.90;;;;;;;-145.14;100.00;70583.66;5037186;28;20453;-77
2022/11/05 08:21:21;;;;;;;4.53;3.17;;;;;;;-145.14;100.00;70583.66;5046699;28;20452;-77
2022/11/05 08:24:07;;;;;;;6.37;3.43;;;;;;;-145.14;100.00;70583.66;5035108;28;20465;-77
2022/11/05 08:26:32;;;;;;;5.47;3.20;;;;;;;-145.14;100.00;70583.66;5035454;28;20442;-79
2022/11/05 08:28:59;;;;;;;8.40;3.13;;;;;;;-145.14;100.00;70583.66;5039392;28;20457;-77
2022/11/05 08:31:24;;;;;;;6.30;2.90;;;;;;;-145.14;100.00;70583.66;5042276;28;20196;-78
2022/11/05 08:33:50;;;;;;;7.50;2.97;;;;;;;-145.14;100.00;70583.66;5043520;28;20462;-78
2022/11/05 08:36:15;;;;;;;7.87;2.60;;;;;;;-145.14;100.00;70583.66;5044580;28;20180;-78
2022/11/05 08:38:41;;;;;;;3.77;2.20;;;;;;;-145.14;100.00;70583.66;5040719;28;20195;-79
2022/11/05 08:41:06;;;;;;;3.80;2.37;;;;;;;-145.14;100.00;70583.66;5043113;28;20554;-79
2022/11/05 08:43:32;;;;;;;4.67;2.77;;;;;;;-145.14;100.00;70583.66;5043873;28;20213;-79
2022/11/05 08:46:00;;;;;;;7.67;4.27;;;;;;;-145.14;100.00;70583.66;5049104;28;20913;-80
2022/11/05 08:48:25;;;;;;;8.20;3.77;;;;;;;-145.14;100.00;70583.66;5047823;28;20187;-79
2022/11/05 08:50:51;;;;;;;9.80;2.20;;;;;;;-145.14;100.00;70583.66;5048713;28;20832;-80
2022/11/05 08:53:16;;;;;;;3.57;2.30;;;;;;;-145.14;100.00;70583.66;5039922;28;20710;-78
2022/11/05 08:55:42;;;;;;;5.63;2.30;;;;;;;-145.14;100.00;70583.66;5046336;28;20234;-78
2022/11/05 08:58:16;;;;;;;4.90;2.77;;;;;;;-145.14;100.00;70583.66;5040802;28;20306;-79
2022/11/05 09:00:44;;;;;;;4.47;2.80;;;;;;;-145.14;100.00;70583.66;5064629;28;20441;-78
2022/11/05 09:03:10;;;;;;;5.67;2.83;;;;;;;-145.14;100.00;70583.66;5025891;28;20558;-79
2022/11/05 09:05:38;;;;;;;4.70;2.57;;;;;;;-145.14;100.00;70583.66;5048292;28;20442;-79
2022/11/05 09:08:21;;;;;;;5.13;2.70;;;;;;;-145.14;100.00;70583.66;5041298;28;20179;-78
2022/11/05 09:10:48;;;;;;;5.93;2.97;;;;;;;-145.14;100.00;70583.66;5042694;28;20499;-79
2022/11/05 09:13:14;;;;;;;5.53;2.90;;;;;;;-145.14;100.00;70583.66;5043087;28;20482;-78
2022/11/05 09:15:40;;;;;;;7.13;3.70;;;;;;;-145.14;100.00;70583.66;5048078;28;20468;-80
2022/11/05 09:18:05;;;;;;;7.43;2.77;;;;;;;-145.14;100.00;70583.66;5040346;28;20442;-78
2022/11/05 09:20:32;;;;;;;3.43;2.20;;;;;;;-145.14;100.00;70583.66;5038619;28;20958;-78
2022/11/05 09:23:00;;;;;;;8.63;3.37;;;;;;;-145.14;100.00;70583.66;5051231;28;20802;-79
2022/11/05 09:25:25;;;;;;;6.33;3.13;;;;;;;-145.14;100.00;70583.66;5034199;28;20465;-80
2022/11/05 09:27:51;;;;;;;6.03;2.57;;;;;;;-145.14;100.00;70583.66;5043835;28;20437;-78
2022/11/05 09:30:16;;;;;;;6.30;2.80;;;;;;;-145.14;100.00;70583.66;5043779;28;20183;-79
2022/11/05 09:32:42;;;;;;;6.67;3.07;;;;;;;-145.14;100.00;70583.66;5042674;28;20848;-78
2022/11/05 09:35:08;;;;;;;6.43;2.70;;;;;;;-145.14;100.00;70583.66;5045532;28;20211;-79
2022/11/05 09:37:35;;;;;;;5.13;2.43;;;;;;;-145.14;100.00;70583.66;5040070;28;20196;-78
2022/11/05 09:40:00;;;;;;;8.50;3.60;;;;;;;-145.14;100.00;70583.66;5042860;28;20442;-78
2022/11/05 09:42:38;;;;;;;5.20;2.90;;;;;;;-145.14;100.00;70583.66;5044643;28;21196;-78
2022/11/05 09:45:12;;;;;;;6.20;3.93;;;;;;;-145.14;100.00;70583.66;5044836;28;20211;-78
2022/11/05 09:48:11;;;;;;;5.30;2.33;;;;;;;-145.14;100.00;70583.66;5053482;28;20455;-79
2022/11/05 09:50:41;;;;;;;4.50;2.40;;;;;;;-145.14;100.00;70583.66;5037264;28;20584;-78
2022/11/05 09:53:09;;;;;;;6.07;2.77;;;;;;;-145.14;100.00;70583.66;5052481;28;20481;-78
2022/11/05 09:55:45;;;;;;;8.00;3.23;;;;;;;-145.14;100.00;70583.66;5060077;28;20422;-80
2022/11/05 09:58:42;;;;;;;8.67;3.00;;;;;;;-145.14;100.00;70583.66;5053454;28;20437;-78
2022/11/05 10:01:16;;;;;;;4.80;2.47;;;;;;;-145.14;100.00;70583.66;5055339;28;20472;-74
2022/11/05 10:03:45;;;;;;;7.40;3.33;;;;;;;-145.14;100.00;70583.66;5052912;28;20480;-78
2022/11/05 10:06:18;;;;;;;11.37;2.40;;;;;;;-145.14;100.00;70583.66;5049290;28;20446;-78
2022/11/05 10:08:48;;;;;;;5.83;2.30;;;;;;;-145.14;100.00;70583.66;5049805;28;20446;-76
2022/11/05 10:11:22;;;;;;;12.10;2.43;;;;;;;-145.14;100.00;70583.66;5044807;28;20460;-78
2022/11/05 10:13:55;;;;;;;10.20;2.90;;;;;;;-145.14;100.00;70583.66;5038667;28;21173;-77
2022/11/05 10:16:32;;;;;;;6.53;2.83;;;;;;;-145.14;100.00;70583.66;5043500;28;20958;-77
2022/11/05 10:19:23;;;;;;;4.33;2.47;;;;;;;-145.14;100.00;70583.66;5025875;28;20441;-76
2022/11/05 10:21:49;;;;;;;2.97;2.63;;;;;;;-145.14;100.00;70583.66;5051797;28;20485;-80
2022/11/05 10:24:17;;;;;;;3.80;2.00;;;;;;;-145.14;100.00;70583.66;5042668;28;20473;-78
2022/11/05 10:26:49;;;;;;;6.70;2.53;;;;;;;-145.14;100.00;70583.66;5055868;28;20434;-78
2022/11/05 10:29:24;;;;;;;6.20;2.50;;;;;;;-145.14;100.00;70583.66;5045843;28;20442;-76
2022/11/05 10:31:56;;;;;;;3.80;2.33;;;;;;;-145.14;100.00;70583.66;5037712;28;20927;-77
2022/11/05 10:34:24;;;;;;;6.37;3.30;;;;;;;-145.14;100.00;70583.66;5033033;28;20976;-78
2022/11/05 10:36:50;;;;;;;7.30;2.70;;;;;;;-145.14;100.00;70583.66;5047048;28;20449;-76
2022/11/05 10:39:18;;;;;;;7.10;2.60;;;;;;;-145.14;100.00;70583.66;5043726;28;20923;-77
2022/11/05 10:42:09;;;;;;;5.43;2.47;;;;;;;-145.14;100.00;70583.66;5037982;28;20199;-77
2022/11/05 10:44:56;;;;;;;5.80;2.30;;;;;;;-145.14;100.00;70583.66;5037989;28;20446;-78
2022/11/05 10:47:59;;;;;;;4.13;2.10;;;;;;;-145.14;100.00;70583.66;5033066;28;20460;-80
2022/11/05 10:50:28;;;;;;;6.10;2.20;;;;;;;-145.14;100.00;70583.66;5044978;28;20461;-76
2022/11/05 10:52:58;;;;;;;4.57;2.60;;;;;;;-145.14;100.00;70583.66;5048778;28;20476;-78
2022/11/05 10:55:23;;;;;;;6.40;2.40;;;;;;;-145.14;100.00;70583.66;5042936;28;20444;-81
2022/11/05 10:57:49;;;;;;;5.40;2.67;;;;;;;-145.14;100.00;70583.66;5041997;28;20441;-79
2022/11/05 11:00:14;;;;;;;5.37;2.20;;;;;;;-145.14;100.00;70583.66;5048303;28;20206;-80
2022/11/05 11:02:48;;;;;;;4.30;2.60;;;;;;;-145.14;100.00;70583.66;5030016;28;20677;-79
2022/11/05 11:05:40;;;;;;;9.83;2.97;;;;;;;-145.14;100.00;70583.66;5051291;28;20191;-83
2022/11/05 11:08:11;;;;;;;5.40;1.90;;;;;;;-145.14;100.00;70583.66;5025565;28;20997;-77
2022/11/05 11:10:51;;;;;;;4.53;2.20;;;;;;;-145.14;100.00;70583.66;5047315;28;20509;-77
2022/11/05 11:13:29;;;;;;;4.40;2.10;;;;;;;-145.14;100.00;70583.66;5046289;28;20985;-84
2022/11/05 11:16:35;;;;;;;6.30;2.17;;;;;;;-145.14;100.00;70583.66;5044262;28;20442;-80
2022/11/05 11:19:02;;;;;;;4.83;2.13;;;;;;;-145.14;100.00;70583.66;5034343;28;20934;-85
2022/11/05 11:21:29;;;;;;;3.43;2.30;;;;;;;-145.14;100.00;70583.66;5040712;28;20619;-81
2022/11/05 11:24:03;;;;;;;3.70;1.70;;;;;;;-145.14;100.00;70583.66;5039987;28;20835;-79
2022/11/05 11:26:37;;;;;;;7.27;2.30;;;;;;;-145.14;100.00;70583.66;5033254;28;20505;-78
2022/11/05 11:29:26;;;;;;;4.27;1.97;;;;;;;-145.14;100.00;70583.66;5048307;28;20921;-80
2022/11/05 11:31:59;;;;;;;5.50;2.20;;;;;;;-145.14;100.00;70583.66;5048027;28;20438;-80
2022/11/05 11:34:32;;;;;;;5.75;2.00;;;;;;;-145.14;100.00;70583.66;5049165;28;20557;-80
2022/11/05 11:37:20;;;;;;;3.33;1.20;;;;;;;-145.14;100.00;70583.66;5048302;28;20465;-80
2022/11/05 11:39:51;;;;;;;8.30;2.50;;;;;;;-145.14;100.00;70583.66;5049172;28;20512;-80
2022/11/05 11:42:28;;;;;;;5.20;2.20;;;;;;;-145.14;100.00;70583.66;5046356;28;21014;-82
2022/11/05 11:44:58;;;;;;;3.20;1.83;;;;;;;-145.14;100.00;70583.66;5019260;28;20823;-80
2022/11/05 11:47:27;;;;;;;2.30;1.20;;;;;;;-145.14;100.00;70583.66;5044315;28;20438;-80
2022/11/05 11:49:55;;;;;;;2.23;1.50;;;;;;;-145.14;100.00;70583.66;5046904;28;20489;-80
2022/11/05 11:52:30;;;;;;;5.80;2.43;;;;;;;-145.14;100.00;70583.66;5046594;28;20574;-81
2022/11/05 11:55:08;;;;;;;2.70;1.20;;;;;;;-145.14;100.00;70583.66;5046527;28;20549;-80
2022/11/05 11:57:42;;;;;;;2.27;1.27;;;;;;;-145.14;100.00;70583.66;5047685;28;20453;-81
2022/11/05 12:00:08;;;;;;;5.53;1.67;;;;;;;-145.14;100.00;70583.66;5047005;28;20528;-82
2022/11/05 12:03:00;;;;;;;7.60;1.70;;;;;;;-145.14;100.00;70583.66;5043572;28;20591;-81
2022/11/05 12:05:58;;;;;;;3.93;1.90;;;;;;;-145.14;100.00;70583.66;5047844;28;20541;-81
2022/11/05 12:08:51;;;;;;;4.43;1.50;;;;;;;-145.14;100.00;70583.66;5048025;28;20425;-80
2022/11/05 12:11:29;;;;;;;2.70;1.60;;;;;;;-145.14;100.00;70583.66;5045834;28;20433;-79
2022/11/05 12:14:01;;;;;;;4.70;1.60;;;;;;;-145.14;100.00;70583.66;5047219;28;20474;-80